sensor_id;sensor_type;location;lat;lon;timestamp;P1;durP1;ratioP1;P2;durP2;ratioP2
40787;SDS011;26497;52.494;7.546;2022-11-15T00:00:47;24.67;;;13.95;;
40787;SDS011;26497;52.494;7.546;2022-11-15T00:03:15;27.70;;;14.20;;
40787;SDS011;26497;52.494;7.546;2022-11-15T00:05:45;25.10;;;13.48;;
40787;SDS011;26497;52.494;7.546;2022-11-15T00:08:12;28.73;;;13.57;;
40787;SDS011;26497;52.494;7.546;2022-11-15T00:10:39;27.35;;;14.80;;
40787;SDS011;26497;52.494;7.546;2022-11-15T00:13:07;24.83;;;12.38;;
40787;SDS011;26497;52.494;7.546;2022-11-15T00:15:35;20.58;;;12.52;;
40787;SDS011;26497;52.494;7.546;2022-11-15T00:18:03;28.08;;;13.25;;
40787;SDS011;26497;52.494;7.546;2022-11-15T00:20:30;24.92;;;12.07;;
40787;SDS011;26497;52.494;7.546;2022-11-15T00:23:01;22.55;;;11.70;;
40787;SDS011;26497;52.494;7.546;2022-11-15T00:25:29;22.40;;;13.15;;
40787;SDS011;26497;52.494;7.546;2022-11-15T00:27:57;22.75;;;12.48;;
40787;SDS011;26497;52.494;7.546;2022-11-15T00:30:25;24.00;;;12.93;;
40787;SDS011;26497;52.494;7.546;2022-11-15T00:32:53;23.67;;;12.63;;
40787;SDS011;26497;52.494;7.546;2022-11-15T00:35:20;19.25;;;11.50;;
40787;SDS011;26497;52.494;7.546;2022-11-15T00:37:47;26.33;;;13.15;;
40787;SDS011;26497;52.494;7.546;2022-11-15T00:40:16;23.42;;;11.50;;
40787;SDS011;26497;52.494;7.546;2022-11-15T00:42:43;24.10;;;12.10;;
40787;SDS011;26497;52.494;7.546;2022-11-15T00:45:10;21.33;;;10.85;;
40787;SDS011;26497;52.494;7.546;2022-11-15T00:47:37;26.33;;;12.43;;
40787;SDS011;26497;52.494;7.546;2022-11-15T00:50:04;22.27;;;11.70;;
40787;SDS011;26497;52.494;7.546;2022-11-15T00:52:32;20.70;;;12.85;;
40787;SDS011;26497;52.494;7.546;2022-11-15T00:54:59;23.33;;;12.15;;
40787;SDS011;26497;52.494;7.546;2022-11-15T00:57:28;23.75;;;11.02;;
40787;SDS011;26497;52.494;7.546;2022-11-15T00:59:55;22.98;;;11.82;;
40787;SDS011;26497;52.494;7.546;2022-11-15T01:02:22;20.27;;;10.63;;
40787;SDS011;26497;52.494;7.546;2022-11-15T01:04:49;23.02;;;11.52;;
40787;SDS011;26497;52.494;7.546;2022-11-15T01:07:16;22.60;;;12.77;;
40787;SDS011;26497;52.494;7.546;2022-11-15T01:09:43;25.02;;;12.57;;
40787;SDS011;26497;52.494;7.546;2022-11-15T01:12:10;24.48;;;11.90;;
40787;SDS011;26497;52.494;7.546;2022-11-15T01:14:39;27.92;;;11.63;;
40787;SDS011;26497;52.494;7.546;2022-11-15T01:17:06;31.60;;;13.10;;
40787;SDS011;26497;52.494;7.546;2022-11-15T01:19:33;22.27;;;11.35;;
40787;SDS011;26497;52.494;7.546;2022-11-15T01:22:00;24.27;;;12.60;;
40787;SDS011;26497;52.494;7.546;2022-11-15T01:24:27;32.50;;;14.02;;
40787;SDS011;26497;52.494;7.546;2022-11-15T01:26:54;27.52;;;13.25;;
40787;SDS011;26497;52.494;7.546;2022-11-15T01:29:21;31.90;;;13.13;;
40787;SDS011;26497;52.494;7.546;2022-11-15T01:31:50;27.52;;;12.15;;
40787;SDS011;26497;52.494;7.546;2022-11-15T01:34:19;29.85;;;13.80;;
40787;SDS011;26497;52.494;7.546;2022-11-15T01:36:46;32.85;;;15.32;;
40787;SDS011;26497;52.494;7.546;2022-11-15T01:39:13;30.27;;;14.13;;
40787;SDS011;26497;52.494;7.546;2022-11-15T01:41:41;30.65;;;14.25;;
40787;SDS011;26497;52.494;7.546;2022-11-15T01:47:09;28.92;;;14.00;;
40787;SDS011;26497;52.494;7.546;2022-11-15T01:49:44;34.53;;;12.73;;
40787;SDS011;26497;52.494;7.546;2022-11-15T01:52:20;31.48;;;13.25;;
40787;SDS011;26497;52.494;7.546;2022-11-15T01:54:53;31.50;;;12.80;;
40787;SDS011;26497;52.494;7.546;2022-11-15T01:57:28;29.50;;;12.45;;
40787;SDS011;26497;52.494;7.546;2022-11-15T01:59:55;31.17;;;13.45;;
40787;SDS011;26497;52.494;7.546;2022-11-15T02:02:24;29.00;;;13.18;;
40787;SDS011;26497;52.494;7.546;2022-11-15T02:04:52;29.50;;;13.85;;
40787;SDS011;26497;52.494;7.546;2022-11-15T02:07:21;30.98;;;13.40;;
40787;SDS011;26497;52.494;7.546;2022-11-15T02:09:49;27.70;;;11.93;;
40787;SDS011;26497;52.494;7.546;2022-11-15T02:12:18;28.23;;;12.52;;
40787;SDS011;26497;52.494;7.546;2022-11-15T02:14:48;29.93;;;12.57;;
40787;SDS011;26497;52.494;7.546;2022-11-15T02:17:29;30.27;;;11.30;;
40787;SDS011;26497;52.494;7.546;2022-11-15T02:20:23;27.42;;;12.00;;
40787;SDS011;26497;52.494;7.546;2022-11-15T02:23:14;23.85;;;12.15;;
40787;SDS011;26497;52.494;7.546;2022-11-15T02:26:42;29.92;;;11.50;;
40787;SDS011;26497;52.494;7.546;2022-11-15T02:30:02;23.05;;;11.73;;
40787;SDS011;26497;52.494;7.546;2022-11-15T02:32:48;20.95;;;10.98;;
40787;SDS011;26497;52.494;7.546;2022-11-15T02:35:22;23.83;;;11.60;;
40787;SDS011;26497;52.494;7.546;2022-11-15T02:38:02;21.98;;;8.77;;
40787;SDS011;26497;52.494;7.546;2022-11-15T02:40:39;18.77;;;9.70;;
40787;SDS011;26497;52.494;7.546;2022-11-15T02:43:17;15.52;;;8.23;;
40787;SDS011;26497;52.494;7.546;2022-11-15T02:46:13;19.17;;;9.48;;
40787;SDS011;26497;52.494;7.546;2022-11-15T02:48:46;17.00;;;9.50;;
40787;SDS011;26497;52.494;7.546;2022-11-15T02:51:15;14.60;;;8.00;;
40787;SDS011;26497;52.494;7.546;2022-11-15T02:53:42;19.25;;;8.43;;
40787;SDS011;26497;52.494;7.546;2022-11-15T02:56:10;17.83;;;10.27;;
40787;SDS011;26497;52.494;7.546;2022-11-15T03:01:41;21.13;;;8.48;;
40787;SDS011;26497;52.494;7.546;2022-11-15T03:04:26;16.70;;;8.07;;
40787;SDS011;26497;52.494;7.546;2022-11-15T03:07:05;20.88;;;11.25;;
40787;SDS011;26497;52.494;7.546;2022-11-15T03:09:42;18.13;;;7.88;;
40787;SDS011;26497;52.494;7.546;2022-11-15T03:12:20;14.18;;;7.80;;
40787;SDS011;26497;52.494;7.546;2022-11-15T03:14:56;18.83;;;8.55;;
40787;SDS011;26497;52.494;7.546;2022-11-15T03:17:32;18.00;;;8.95;;
40787;SDS011;26497;52.494;7.546;2022-11-15T03:20:05;14.40;;;8.27;;
40787;SDS011;26497;52.494;7.546;2022-11-15T03:22:35;19.10;;;9.10;;
40787;SDS011;26497;52.494;7.546;2022-11-15T03:25:08;19.45;;;9.13;;
40787;SDS011;26497;52.494;7.546;2022-11-15T03:27:41;12.95;;;8.30;;
40787;SDS011;26497;52.494;7.546;2022-11-15T03:30:13;17.90;;;8.27;;
40787;SDS011;26497;52.494;7.546;2022-11-15T03:32:45;18.30;;;8.30;;
40787;SDS011;26497;52.494;7.546;2022-11-15T03:35:17;21.30;;;8.82;;
40787;SDS011;26497;52.494;7.546;2022-11-15T03:37:48;16.00;;;8.23;;
40787;SDS011;26497;52.494;7.546;2022-11-15T03:40:22;16.40;;;9.70;;
40787;SDS011;26497;52.494;7.546;2022-11-15T03:42:57;19.45;;;9.68;;
40787;SDS011;26497;52.494;7.546;2022-11-15T03:45:31;23.15;;;8.90;;
40787;SDS011;26497;52.494;7.546;2022-11-15T03:48:10;17.25;;;8.93;;
40787;SDS011;26497;52.494;7.546;2022-11-15T03:50:44;15.82;;;8.82;;
40787;SDS011;26497;52.494;7.546;2022-11-15T03:53:13;26.50;;;8.82;;
40787;SDS011;26497;52.494;7.546;2022-11-15T03:55:40;14.25;;;8.93;;
40787;SDS011;26497;52.494;7.546;2022-11-15T03:58:07;17.35;;;8.90;;
40787;SDS011;26497;52.494;7.546;2022-11-15T04:00:35;16.60;;;9.93;;
40787;SDS011;26497;52.494;7.546;2022-11-15T04:03:02;12.43;;;8.15;;
40787;SDS011;26497;52.494;7.546;2022-11-15T04:05:30;23.25;;;9.60;;
40787;SDS011;26497;52.494;7.546;2022-11-15T04:07:58;22.00;;;9.75;;
40787;SDS011;26497;52.494;7.546;2022-11-15T04:10:25;15.52;;;8.45;;
40787;SDS011;26497;52.494;7.546;2022-11-15T04:12:52;17.02;;;9.25;;
40787;SDS011;26497;52.494;7.546;2022-11-15T04:15:19;16.98;;;9.65;;
40787;SDS011;26497;52.494;7.546;2022-11-15T04:17:49;14.93;;;9.02;;
40787;SDS011;26497;52.494;7.546;2022-11-15T04:20:19;13.50;;;8.88;;
40787;SDS011;26497;52.494;7.546;2022-11-15T04:23:08;14.70;;;10.48;;
40787;SDS011;26497;52.494;7.546;2022-11-15T04:25:55;12.13;;;8.15;;
40787;SDS011;26497;52.494;7.546;2022-11-15T04:28:26;16.27;;;7.70;;
40787;SDS011;26497;52.494;7.546;2022-11-15T04:30:53;20.58;;;8.80;;
40787;SDS011;26497;52.494;7.546;2022-11-15T04:33:21;17.08;;;9.02;;
40787;SDS011;26497;52.494;7.546;2022-11-15T04:35:48;16.83;;;8.88;;
40787;SDS011;26497;52.494;7.546;2022-11-15T04:38:31;13.40;;;7.70;;
40787;SDS011;26497;52.494;7.546;2022-11-15T04:40:58;15.45;;;9.50;;
40787;SDS011;26497;52.494;7.546;2022-11-15T04:43:25;19.92;;;9.27;;
40787;SDS011;26497;52.494;7.546;2022-11-15T04:45:52;17.52;;;9.38;;
40787;SDS011;26497;52.494;7.546;2022-11-15T04:48:19;12.85;;;8.27;;
40787;SDS011;26497;52.494;7.546;2022-11-15T04:50:47;19.40;;;9.48;;
40787;SDS011;26497;52.494;7.546;2022-11-15T04:53:15;22.83;;;10.02;;
40787;SDS011;26497;52.494;7.546;2022-11-15T04:55:45;13.73;;;8.07;;
40787;SDS011;26497;52.494;7.546;2022-11-15T04:58:12;18.52;;;10.32;;
40787;SDS011;26497;52.494;7.546;2022-11-15T05:00:39;12.95;;;8.30;;
40787;SDS011;26497;52.494;7.546;2022-11-15T05:03:08;17.30;;;9.65;;
40787;SDS011;26497;52.494;7.546;2022-11-15T05:05:53;18.67;;;8.55;;
40787;SDS011;26497;52.494;7.546;2022-11-15T05:08:20;14.57;;;9.10;;
40787;SDS011;26497;52.494;7.546;2022-11-15T05:10:49;20.95;;;9.70;;
40787;SDS011;26497;52.494;7.546;2022-11-15T05:13:16;12.82;;;7.95;;
40787;SDS011;26497;52.494;7.546;2022-11-15T05:15:44;15.68;;;9.07;;
40787;SDS011;26497;52.494;7.546;2022-11-15T05:18:11;14.20;;;9.02;;
40787;SDS011;26497;52.494;7.546;2022-11-15T05:20:38;13.45;;;8.75;;
40787;SDS011;26497;52.494;7.546;2022-11-15T05:23:05;15.38;;;9.10;;
40787;SDS011;26497;52.494;7.546;2022-11-15T05:25:32;16.95;;;9.10;;
40787;SDS011;26497;52.494;7.546;2022-11-15T05:28:03;17.40;;;8.63;;
40787;SDS011;26497;52.494;7.546;2022-11-15T05:30:30;15.10;;;8.77;;
40787;SDS011;26497;52.494;7.546;2022-11-15T05:32:57;15.90;;;8.82;;
40787;SDS011;26497;52.494;7.546;2022-11-15T05:35:25;16.08;;;9.68;;
40787;SDS011;26497;52.494;7.546;2022-11-15T05:37:59;17.73;;;8.50;;
40787;SDS011;26497;52.494;7.546;2022-11-15T05:40:26;11.38;;;8.02;;
40787;SDS011;26497;52.494;7.546;2022-11-15T05:42:55;14.30;;;8.77;;
40787;SDS011;26497;52.494;7.546;2022-11-15T05:45:24;14.77;;;8.68;;
40787;SDS011;26497;52.494;7.546;2022-11-15T05:47:51;10.77;;;7.80;;
40787;SDS011;26497;52.494;7.546;2022-11-15T05:50:20;16.55;;;8.95;;
40787;SDS011;26497;52.494;7.546;2022-11-15T05:52:47;17.02;;;8.80;;
40787;SDS011;26497;52.494;7.546;2022-11-15T05:55:14;13.05;;;7.88;;
40787;SDS011;26497;52.494;7.546;2022-11-15T05:57:42;13.75;;;8.32;;
40787;SDS011;26497;52.494;7.546;2022-11-15T06:00:10;14.48;;;8.13;;
40787;SDS011;26497;52.494;7.546;2022-11-15T06:02:40;13.48;;;7.45;;
40787;SDS011;26497;52.494;7.546;2022-11-15T06:05:07;13.25;;;8.50;;
40787;SDS011;26497;52.494;7.546;2022-11-15T06:07:34;15.75;;;8.13;;
40787;SDS011;26497;52.494;7.546;2022-11-15T06:10:01;12.38;;;7.07;;
40787;SDS011;26497;52.494;7.546;2022-11-15T06:12:29;14.30;;;8.60;;
40787;SDS011;26497;52.494;7.546;2022-11-15T06:14:56;13.77;;;7.07;;
40787;SDS011;26497;52.494;7.546;2022-11-15T06:17:23;15.73;;;9.13;;
40787;SDS011;26497;52.494;7.546;2022-11-15T06:19:52;13.15;;;8.68;;
40787;SDS011;26497;52.494;7.546;2022-11-15T06:22:19;11.85;;;7.20;;
40787;SDS011;26497;52.494;7.546;2022-11-15T06:24:46;12.90;;;7.40;;
40787;SDS011;26497;52.494;7.546;2022-11-15T06:27:13;10.57;;;7.47;;
40787;SDS011;26497;52.494;7.546;2022-11-15T06:29:40;11.68;;;7.60;;
40787;SDS011;26497;52.494;7.546;2022-11-15T06:32:08;15.10;;;8.73;;
40787;SDS011;26497;52.494;7.546;2022-11-15T06:34:35;17.70;;;8.23;;
40787;SDS011;26497;52.494;7.546;2022-11-15T06:37:03;12.77;;;7.70;;
40787;SDS011;26497;52.494;7.546;2022-11-15T06:39:31;13.23;;;7.53;;
40787;SDS011;26497;52.494;7.546;2022-11-15T06:41:58;15.68;;;7.88;;
40787;SDS011;26497;52.494;7.546;2022-11-15T06:44:25;21.00;;;7.75;;
40787;SDS011;26497;52.494;7.546;2022-11-15T06:46:52;12.80;;;7.32;;
40787;SDS011;26497;52.494;7.546;2022-11-15T06:49:19;13.45;;;6.60;;
40787;SDS011;26497;52.494;7.546;2022-11-15T06:51:46;11.95;;;6.90;;
40787;SDS011;26497;52.494;7.546;2022-11-15T06:54:14;13.98;;;7.40;;
40787;SDS011;26497;52.494;7.546;2022-11-15T06:56:41;13.13;;;6.88;;
40787;SDS011;26497;52.494;7.546;2022-11-15T06:59:09;10.13;;;7.30;;
40787;SDS011;26497;52.494;7.546;2022-11-15T07:01:36;17.33;;;7.88;;
40787;SDS011;26497;52.494;7.546;2022-11-15T07:04:03;14.70;;;7.90;;
40787;SDS011;26497;52.494;7.546;2022-11-15T07:06:31;13.70;;;7.10;;
40787;SDS011;26497;52.494;7.546;2022-11-15T07:08:58;13.38;;;7.22;;
40787;SDS011;26497;52.494;7.546;2022-11-15T07:11:26;14.43;;;6.65;;
40787;SDS011;26497;52.494;7.546;2022-11-15T07:13:53;16.50;;;8.50;;
40787;SDS011;26497;52.494;7.546;2022-11-15T07:16:20;14.40;;;7.28;;
40787;SDS011;26497;52.494;7.546;2022-11-15T07:18:47;37.72;;;8.73;;
40787;SDS011;26497;52.494;7.546;2022-11-15T07:21:15;16.55;;;7.15;;
40787;SDS011;26497;52.494;7.546;2022-11-15T07:27:24;13.35;;;7.13;;
40787;SDS011;26497;52.494;7.546;2022-11-15T07:29:51;12.90;;;6.68;;
40787;SDS011;26497;52.494;7.546;2022-11-15T07:32:18;13.77;;;7.03;;
40787;SDS011;26497;52.494;7.546;2022-11-15T07:34:45;14.00;;;7.07;;
40787;SDS011;26497;52.494;7.546;2022-11-15T07:37:12;13.70;;;8.88;;
40787;SDS011;26497;52.494;7.546;2022-11-15T07:39:39;12.70;;;7.18;;
40787;SDS011;26497;52.494;7.546;2022-11-15T07:42:07;12.93;;;7.60;;
40787;SDS011;26497;52.494;7.546;2022-11-15T07:44:53;12.02;;;7.70;;
40787;SDS011;26497;52.494;7.546;2022-11-15T07:47:20;15.23;;;8.10;;
40787;SDS011;26497;52.494;7.546;2022-11-15T07:49:47;12.90;;;7.93;;
40787;SDS011;26497;52.494;7.546;2022-11-15T07:52:14;14.70;;;8.10;;
40787;SDS011;26497;52.494;7.546;2022-11-15T07:54:41;15.15;;;9.18;;
40787;SDS011;26497;52.494;7.546;2022-11-15T07:57:08;16.02;;;8.77;;
40787;SDS011;26497;52.494;7.546;2022-11-15T07:59:35;16.23;;;9.25;;
40787;SDS011;26497;52.494;7.546;2022-11-15T08:02:04;17.05;;;9.05;;
40787;SDS011;26497;52.494;7.546;2022-11-15T08:04:32;12.98;;;7.78;;
40787;SDS011;26497;52.494;7.546;2022-11-15T08:06:59;18.73;;;9.38;;
40787;SDS011;26497;52.494;7.546;2022-11-15T08:09:27;16.45;;;9.73;;
40787;SDS011;26497;52.494;7.546;2022-11-15T08:11:54;14.95;;;9.00;;
40787;SDS011;26497;52.494;7.546;2022-11-15T08:14:21;20.27;;;9.30;;
40787;SDS011;26497;52.494;7.546;2022-11-15T08:16:48;13.55;;;8.75;;
40787;SDS011;26497;52.494;7.546;2022-11-15T08:19:17;16.80;;;9.77;;
40787;SDS011;26497;52.494;7.546;2022-11-15T08:21:44;25.00;;;9.65;;
40787;SDS011;26497;52.494;7.546;2022-11-15T08:24:11;24.02;;;9.98;;
40787;SDS011;26497;52.494;7.546;2022-11-15T08:26:38;17.52;;;9.05;;
40787;SDS011;26497;52.494;7.546;2022-11-15T08:29:05;21.45;;;10.38;;
40787;SDS011;26497;52.494;7.546;2022-11-15T08:31:34;18.40;;;9.07;;
40787;SDS011;26497;52.494;7.546;2022-11-15T08:34:02;18.35;;;10.13;;
40787;SDS011;26497;52.494;7.546;2022-11-15T08:36:39;16.13;;;10.18;;
40787;SDS011;26497;52.494;7.546;2022-11-15T08:41:36;14.95;;;8.88;;
40787;SDS011;26497;52.494;7.546;2022-11-15T08:44:04;15.13;;;9.05;;
40787;SDS011;26497;52.494;7.546;2022-11-15T08:46:31;15.80;;;9.45;;
40787;SDS011;26497;52.494;7.546;2022-11-15T08:48:58;21.38;;;9.68;;
40787;SDS011;26497;52.494;7.546;2022-11-15T08:51:25;16.48;;;10.00;;
40787;SDS011;26497;52.494;7.546;2022-11-15T08:53:54;17.05;;;9.40;;
40787;SDS011;26497;52.494;7.546;2022-11-15T08:56:28;14.88;;;8.25;;
40787;SDS011;26497;52.494;7.546;2022-11-15T08:58:58;15.52;;;10.02;;
40787;SDS011;26497;52.494;7.546;2022-11-15T09:01:25;15.35;;;9.13;;
40787;SDS011;26497;52.494;7.546;2022-11-15T09:03:52;14.68;;;9.13;;
40787;SDS011;26497;52.494;7.546;2022-11-15T09:06:20;16.20;;;9.88;;
40787;SDS011;26497;52.494;7.546;2022-11-15T09:08:47;22.25;;;9.32;;
40787;SDS011;26497;52.494;7.546;2022-11-15T09:11:15;15.38;;;9.27;;
40787;SDS011;26497;52.494;7.546;2022-11-15T09:13:45;16.88;;;9.93;;
40787;SDS011;26497;52.494;7.546;2022-11-15T09:16:15;18.08;;;8.98;;
40787;SDS011;26497;52.494;7.546;2022-11-15T09:18:42;16.05;;;10.23;;
40787;SDS011;26497;52.494;7.546;2022-11-15T09:21:09;14.48;;;8.98;;
40787;SDS011;26497;52.494;7.546;2022-11-15T09:23:37;15.50;;;9.50;;
40787;SDS011;26497;52.494;7.546;2022-11-15T09:26:04;17.20;;;9.30;;
40787;SDS011;26497;52.494;7.546;2022-11-15T09:28:37;12.98;;;7.93;;
40787;SDS011;26497;52.494;7.546;2022-11-15T09:31:07;13.45;;;8.65;;
40787;SDS011;26497;52.494;7.546;2022-11-15T09:33:34;17.17;;;8.65;;
40787;SDS011;26497;52.494;7.546;2022-11-15T09:36:02;15.43;;;7.60;;
40787;SDS011;26497;52.494;7.546;2022-11-15T09:38:32;14.37;;;8.20;;
40787;SDS011;26497;52.494;7.546;2022-11-15T09:44:46;13.90;;;7.32;;
40787;SDS011;26497;52.494;7.546;2022-11-15T09:47:35;9.77;;;6.75;;
40787;SDS011;26497;52.494;7.546;2022-11-15T09:50:17;14.43;;;6.07;;
40787;SDS011;26497;52.494;7.546;2022-11-15T09:53:08;11.70;;;6.03;;
40787;SDS011;26497;52.494;7.546;2022-11-15T09:55:46;9.45;;;6.57;;
40787;SDS011;26497;52.494;7.546;2022-11-15T09:58:25;9.77;;;6.35;;
40787;SDS011;26497;52.494;7.546;2022-11-15T10:01:04;8.20;;;6.00;;
40787;SDS011;26497;52.494;7.546;2022-11-15T10:03:39;10.38;;;5.93;;
40787;SDS011;26497;52.494;7.546;2022-11-15T10:06:08;8.18;;;5.40;;
40787;SDS011;26497;52.494;7.546;2022-11-15T10:08:48;6.53;;;5.22;;
40787;SDS011;26497;52.494;7.546;2022-11-15T10:11:22;8.82;;;4.88;;
40787;SDS011;26497;52.494;7.546;2022-11-15T10:13:56;10.10;;;4.35;;
40787;SDS011;26497;52.494;7.546;2022-11-15T10:19:42;7.65;;;4.40;;
40787;SDS011;26497;52.494;7.546;2022-11-15T10:22:38;5.70;;;4.18;;
40787;SDS011;26497;52.494;7.546;2022-11-15T10:25:15;8.93;;;4.43;;
40787;SDS011;26497;52.494;7.546;2022-11-15T10:27:53;6.57;;;4.43;;
40787;SDS011;26497;52.494;7.546;2022-11-15T10:30:32;6.63;;;4.22;;
40787;SDS011;26497;52.494;7.546;2022-11-15T10:38:57;4.68;;;3.08;;
40787;SDS011;26497;52.494;7.546;2022-11-15T10:41:32;4.63;;;3.63;;
40787;SDS011;26497;52.494;7.546;2022-11-15T10:44:10;4.43;;;3.58;;
40787;SDS011;26497;52.494;7.546;2022-11-15T10:46:50;5.97;;;4.03;;
40787;SDS011;26497;52.494;7.546;2022-11-15T10:49:58;6.38;;;3.97;;
40787;SDS011;26497;52.494;7.546;2022-11-15T10:52:33;5.53;;;3.70;;
40787;SDS011;26497;52.494;7.546;2022-11-15T10:55:17;3.67;;;3.38;;
40787;SDS011;26497;52.494;7.546;2022-11-15T10:57:51;5.22;;;3.25;;
40787;SDS011;26497;52.494;7.546;2022-11-15T11:00:27;2.90;;;2.60;;
40787;SDS011;26497;52.494;7.546;2022-11-15T11:03:01;4.50;;;3.60;;
40787;SDS011;26497;52.494;7.546;2022-11-15T11:05:34;7.18;;;2.70;;
40787;SDS011;26497;52.494;7.546;2022-11-15T11:08:04;4.50;;;2.22;;
40787;SDS011;26497;52.494;7.546;2022-11-15T11:10:51;4.22;;;1.98;;
40787;SDS011;26497;52.494;7.546;2022-11-15T11:13:21;2.70;;;1.80;;
40787;SDS011;26497;52.494;7.546;2022-11-15T11:15:51;2.23;;;1.80;;
40787;SDS011;26497;52.494;7.546;2022-11-15T11:18:26;1.38;;;1.17;;
40787;SDS011;26497;52.494;7.546;2022-11-15T11:21:02;1.48;;;1.20;;
40787;SDS011;26497;52.494;7.546;2022-11-15T11:23:39;1.25;;;0.57;;
40787;SDS011;26497;52.494;7.546;2022-11-15T11:26:18;2.55;;;0.55;;
40787;SDS011;26497;52.494;7.546;2022-11-15T11:29:02;0.98;;;0.50;;
40787;SDS011;26497;52.494;7.546;2022-11-15T11:34:19;1.40;;;0.60;;
40787;SDS011;26497;52.494;7.546;2022-11-15T11:37:12;0.70;;;0.40;;
40787;SDS011;26497;52.494;7.546;2022-11-15T11:39:48;0.63;;;0.32;;
40787;SDS011;26497;52.494;7.546;2022-11-15T11:42:30;1.15;;;0.55;;
40787;SDS011;26497;52.494;7.546;2022-11-15T11:45:11;1.33;;;0.43;;
40787;SDS011;26497;52.494;7.546;2022-11-15T11:47:50;0.57;;;0.20;;
40787;SDS011;26497;52.494;7.546;2022-11-15T11:50:25;0.50;;;0.20;;
40787;SDS011;26497;52.494;7.546;2022-11-15T11:52:56;0.85;;;0.20;;
40787;SDS011;26497;52.494;7.546;2022-11-15T11:55:26;1.88;;;0.30;;
40787;SDS011;26497;52.494;7.546;2022-11-15T11:58:01;0.88;;;0.20;;
40787;SDS011;26497;52.494;7.546;2022-11-15T12:00:38;0.73;;;0.30;;
40787;SDS011;26497;52.494;7.546;2022-11-15T12:03:09;0.85;;;0.20;;
40787;SDS011;26497;52.494;7.546;2022-11-15T12:05:40;1.73;;;0.30;;
40787;SDS011;26497;52.494;7.546;2022-11-15T12:08:24;1.65;;;0.40;;
40787;SDS011;26497;52.494;7.546;2022-11-15T12:11:01;1.17;;;0.65;;
40787;SDS011;26497;52.494;7.546;2022-11-15T12:13:43;0.95;;;0.25;;
40787;SDS011;26497;52.494;7.546;2022-11-15T12:16:13;0.85;;;0.38;;
40787;SDS011;26497;52.494;7.546;2022-11-15T12:18:44;0.95;;;0.45;;
40787;SDS011;26497;52.494;7.546;2022-11-15T12:21:18;1.02;;;0.57;;
40787;SDS011;26497;52.494;7.546;2022-11-15T12:23:53;1.35;;;0.88;;
40787;SDS011;26497;52.494;7.546;2022-11-15T12:26:26;2.30;;;0.43;;
40787;SDS011;26497;52.494;7.546;2022-11-15T12:28:59;2.17;;;1.23;;
40787;SDS011;26497;52.494;7.546;2022-11-15T12:31:35;1.35;;;0.90;;
40787;SDS011;26497;52.494;7.546;2022-11-15T12:34:12;1.38;;;0.88;;
40787;SDS011;26497;52.494;7.546;2022-11-15T12:36:56;2.35;;;1.25;;
40787;SDS011;26497;52.494;7.546;2022-11-15T12:42:57;2.83;;;1.30;;
40787;SDS011;26497;52.494;7.546;2022-11-15T12:46:13;2.28;;;1.15;;
40787;SDS011;26497;52.494;7.546;2022-11-15T12:48:54;3.03;;;1.60;;
40787;SDS011;26497;52.494;7.546;2022-11-15T12:57:30;1.70;;;1.02;;
40787;SDS011;26497;52.494;7.546;2022-11-15T13:00:00;1.85;;;0.80;;
40787;SDS011;26497;52.494;7.546;2022-11-15T13:02:29;4.18;;;1.98;;
40787;SDS011;26497;52.494;7.546;2022-11-15T13:22:48;2.55;;;0.40;;
40787;SDS011;26497;52.494;7.546;2022-11-15T13:25:18;1.10;;;0.20;;
40787;SDS011;26497;52.494;7.546;2022-11-15T13:28:20;1.95;;;0.43;;
40787;SDS011;26497;52.494;7.546;2022-11-15T13:30:56;2.88;;;0.30;;
40787;SDS011;26497;52.494;7.546;2022-11-15T13:33:25;2.17;;;0.30;;
40787;SDS011;26497;52.494;7.546;2022-11-15T13:35:58;1.00;;;0.40;;
40787;SDS011;26497;52.494;7.546;2022-11-15T13:38:30;1.85;;;0.40;;
40787;SDS011;26497;52.494;7.546;2022-11-15T13:40:59;0.40;;;0.20;;
40787;SDS011;26497;52.494;7.546;2022-11-15T13:43:40;0.90;;;0.43;;
40787;SDS011;26497;52.494;7.546;2022-11-15T13:46:12;2.20;;;0.40;;
40787;SDS011;26497;52.494;7.546;2022-11-15T13:48:42;4.28;;;0.45;;
40787;SDS011;26497;52.494;7.546;2022-11-15T13:51:13;1.45;;;0.40;;
40787;SDS011;26497;52.494;7.546;2022-11-15T13:53:48;1.42;;;0.52;;
40787;SDS011;26497;52.494;7.546;2022-11-15T13:56:21;0.55;;;0.43;;
40787;SDS011;26497;52.494;7.546;2022-11-15T13:58:48;2.95;;;0.40;;
40787;SDS011;26497;52.494;7.546;2022-11-15T14:01:17;1.10;;;0.50;;
40787;SDS011;26497;52.494;7.546;2022-11-15T14:03:47;3.72;;;0.30;;
40787;SDS011;26497;52.494;7.546;2022-11-15T14:06:20;0.70;;;0.30;;
40787;SDS011;26497;52.494;7.546;2022-11-15T14:09:00;1.25;;;0.25;;
40787;SDS011;26497;52.494;7.546;2022-11-15T14:12:03;1.30;;;0.40;;
40787;SDS011;26497;52.494;7.546;2022-11-15T14:14:56;0.63;;;0.22;;
40787;SDS011;26497;52.494;7.546;2022-11-15T14:17:37;1.25;;;0.40;;
40787;SDS011;26497;52.494;7.546;2022-11-15T14:20:26;2.38;;;0.30;;
40787;SDS011;26497;52.494;7.546;2022-11-15T14:22:58;3.13;;;0.65;;
40787;SDS011;26497;52.494;7.546;2022-11-15T14:25:27;0.55;;;0.20;;
40787;SDS011;26497;52.494;7.546;2022-11-15T14:28:09;2.17;;;0.50;;
40787;SDS011;26497;52.494;7.546;2022-11-15T14:31:11;2.80;;;0.40;;
40787;SDS011;26497;52.494;7.546;2022-11-15T14:33:40;1.10;;;0.30;;
40787;SDS011;26497;52.494;7.546;2022-11-15T14:36:10;4.03;;;0.70;;
40787;SDS011;26497;52.494;7.546;2022-11-15T14:38:39;1.13;;;0.32;;
40787;SDS011;26497;52.494;7.546;2022-11-15T14:41:10;0.88;;;0.50;;
40787;SDS011;26497;52.494;7.546;2022-11-15T14:43:47;2.30;;;0.55;;
40787;SDS011;26497;52.494;7.546;2022-11-15T14:46:15;3.25;;;0.30;;
40787;SDS011;26497;52.494;7.546;2022-11-15T14:48:44;0.63;;;0.22;;
40787;SDS011;26497;52.494;7.546;2022-11-15T14:51:12;1.10;;;0.60;;
40787;SDS011;26497;52.494;7.546;2022-11-15T14:53:41;1.88;;;0.65;;
40787;SDS011;26497;52.494;7.546;2022-11-15T14:56:09;0.70;;;0.45;;
40787;SDS011;26497;52.494;7.546;2022-11-15T14:58:36;1.70;;;0.82;;
40787;SDS011;26497;52.494;7.546;2022-11-15T15:01:08;4.78;;;0.80;;
40787;SDS011;26497;52.494;7.546;2022-11-15T15:03:49;2.28;;;0.77;;
40787;SDS011;26497;52.494;7.546;2022-11-15T15:06:17;4.10;;;0.70;;
40787;SDS011;26497;52.494;7.546;2022-11-15T15:08:44;2.38;;;0.85;;
40787;SDS011;26497;52.494;7.546;2022-11-15T15:11:13;6.95;;;1.33;;
40787;SDS011;26497;52.494;7.546;2022-11-15T15:13:44;3.15;;;0.95;;
40787;SDS011;26497;52.494;7.546;2022-11-15T15:16:11;4.88;;;1.17;;
40787;SDS011;26497;52.494;7.546;2022-11-15T15:18:38;3.33;;;0.95;;
40787;SDS011;26497;52.494;7.546;2022-11-15T15:21:13;4.30;;;1.00;;
40787;SDS011;26497;52.494;7.546;2022-11-15T15:23:46;3.75;;;0.63;;
40787;SDS011;26497;52.494;7.546;2022-11-15T15:26:13;4.95;;;0.77;;
40787;SDS011;26497;52.494;7.546;2022-11-15T15:28:40;5.35;;;1.00;;
40787;SDS011;26497;52.494;7.546;2022-11-15T15:31:07;3.95;;;1.42;;
40787;SDS011;26497;52.494;7.546;2022-11-15T15:33:34;4.28;;;2.20;;
40787;SDS011;26497;52.494;7.546;2022-11-15T15:36:01;3.08;;;1.10;;
40787;SDS011;26497;52.494;7.546;2022-11-15T15:38:30;1.58;;;1.25;;
40787;SDS011;26497;52.494;7.546;2022-11-15T15:40:57;3.45;;;1.77;;
40787;SDS011;26497;52.494;7.546;2022-11-15T15:43:27;1.33;;;0.93;;
40787;SDS011;26497;52.494;7.546;2022-11-15T15:45:54;4.32;;;1.05;;
40787;SDS011;26497;52.494;7.546;2022-11-15T15:48:21;2.58;;;0.40;;
40787;SDS011;26497;52.494;7.546;2022-11-15T15:50:48;5.15;;;1.15;;
40787;SDS011;26497;52.494;7.546;2022-11-15T15:53:15;3.35;;;1.45;;
40787;SDS011;26497;52.494;7.546;2022-11-15T15:55:44;2.38;;;1.48;;
40787;SDS011;26497;52.494;7.546;2022-11-15T15:58:11;6.28;;;1.55;;